Detall de PIREP

Printer-friendly versionPDF version

[2013/11/10 08:10:00]
Flight IATA:CT3250
Pilot Number:012
Company ICAO:CAT
Aircraft Type:DC85/A
PAX:132
Aircraft Registration:PAX
Departing Airport: LEPA
Destination Airport: EYVI
Alternate Airport:EYSA
Online: VATSIM
Route:MEROS/M084F360 UN853 LUMAS UM985 TAGIP UT876 OGEPI UM726 KOGOL/M084F370 UN871 DOKEL UP733 TOMTI P733 KMI M994 GOMED G354 KRAKI M874 ELEKA
Flight Level:F370
No Slew and time accel
No pause
Crash detect
Detect pilot in Cockpit between each 30 and 45 minutes
08:10 Zero fuel Weight: 167678 Lbs, Fuel Weight: 62363 Lbs
08:10 VATSIM:LEPA 100730Z 30012KT 270V340 9999 FEW025 SCT055 19/10 Q1020 NOSIG
08:10 VATSIM:EYVI 100750Z 18002KT 1400 R20/P1500N BR VCFG BKN002 OVC110 05/05 Q1008 R20/2///95 TEMPO 0800 FG
08:10 VOICE CATALONIAN
08:15 Parking Brakes off
08:27 Take-off
08:27 Take off Weight: 228699 Lbs
08:27 Wind: 305º @ 012 Knots Heading: 242º
08:27 POS N39º 33´ 15´´ E002º 43´ 31´´
08:27 Gear Up: 164 Knots
08:27 Flaps:2 at 164 Knots
08:27 Flaps:1 at 209 Knots
08:28 Flaps:0 at 239 Knots
08:42 Wind:354º@091 Knots Heading: 021º Ground Speed: 326 Knots Altitude 36177 ft
08:57 Wind:341º@087 Knots Heading: 010º Ground Speed: 396 Knots Altitude 36062 ft
09:12 Wind:339º@104 Knots Heading: 029º Ground Speed: 419 Knots Altitude 35898 ft
09:27 Wind:328º@089 Knots Heading: 044º Ground Speed: 462 Knots Altitude 35793 ft
09:42 Wind:305º@043 Knots Heading: 025º Ground Speed: 470 Knots Altitude 35777 ft
09:57 Wind:304º@038 Knots Heading: 012º Ground Speed: 462 Knots Altitude 35787 ft
10:07 TOC
10:07 Fuel Weight: 38106 Lb
10:12 Wind:270º@037 Knots Heading: 032º Ground Speed: 488 Knots Altitude 36696 ft
10:27 Wind:247º@038 Knots Heading: 022º Ground Speed: 498 Knots Altitude 36686 ft
10:42 Wind:231º@040 Knots Heading: 034º Ground Speed: 510 Knots Altitude 36689 ft
10:57 Wind:225º@046 Knots Heading: 037º Ground Speed: 518 Knots Altitude 36689 ft
11:12 Wind:226º@057 Knots Heading: 077º Ground Speed: 524 Knots Altitude 36725 ft
11:19 TOD
11:19 Fuel Weight: 23749 Lb
11:27 Wind:205º@061 Knots Heading: 108º Ground Speed: 360 Knots Altitude 21332 ft
11:34 Flaps:1 at 227 Knots
11:35 Flaps:2 at 213 Knots
11:36 Flaps:3 at 200 Knots
11:39 Gear Down: 158 Knots
11:39 Flaps:4 at 157 Knots
11:39 Flaps:5 at 145 Knots
11:42 Wind:193º@004 Knots Heading: 204º Ground Speed: 146 Knots Altitude 1299 ft
11:42 TouchDown:Rate -189 ft/min Speed: 122 Knots
11:43 Flaps:2 at 51 Knots
11:43 VATSIM:EYVI 101120Z 17004KT 4000 BR SCT004 BKN041 OVC110 06/05 Q1007 R20/2///95 NOSIG
11:43 Land
11:43 Wind:193º@004 Knots
11:43 Heading: 203º
11:43 Flight Duration: 03:16
11:43 Landing Weight: 189027 Lbs
11:43 POS N54º 37´ 57´´ E025º 17´ 05´´
11:48 Parking brakes on
11:48 Block to Block Duration: 03:33
11:48 Final Fuel: 20787 Lbls
11:48 Spent Fuel: 41576 Lbls
11:48 Flight Length: 1442 NM
11:48 TOD Land Length: 120 NM

Exportar CSV

Powered by Drupal - Modified by Danger4k